.
WxDataArchive / Data Records for 2005-12-19
2005-12-18 December 2005 2005-12-20

Data Records for Monday, 19 December 2005

Time	Temp	Chill	HIndex	Humid	Dewpt	 Wind 	HiWind	WindDir	Rain 	Barom 
-----	----	-----	------	-----	-----	------	------	-------	-----	----- 
00:00	9.0	9.0	9.0	74	2.4	1	6	270	0.00	30.487 
00:05	9.0	9.0	9.0	74	2.4	2	4	248	0.00	30.487 
00:10	8.8	8.8	8.8	74	2.2	2	5	248	0.00	30.487 
00:15	8.6	8.6	8.6	74	2.0	1	6	248	0.00	30.483 
00:20	8.6	8.6	8.6	75	2.3	1	4	248	0.00	30.483 
00:25	8.6	8.6	8.6	74	2.0	1	7	248	0.00	30.483 
00:30	8.4	8.4	8.4	75	2.1	1	6	248	0.00	30.485 
00:35	8.4	8.4	8.4	75	2.1	1	4	248	0.00	30.485 
00:40	8.3	8.3	8.3	75	2.0	1	4	248	0.00	30.485 
00:45	8.3	8.3	8.3	75	2.0	2	4	248	0.00	30.484 
00:50	8.3	8.3	8.3	75	2.0	2	6	248	0.00	30.484 
00:55	8.1	8.1	8.1	75	1.8	2	5	248	0.00	30.484 
01:00	8.1	8.1	8.1	75	1.8	1	5	248	0.00	30.480 
01:05	7.9	7.9	7.9	75	1.7	1	4	248	0.00	30.480 
01:10	7.9	7.9	7.9	75	1.7	1	4	248	0.00	30.480 
01:15	7.7	7.7	7.7	75	1.5	1	4	248	0.00	30.487 
01:20	7.7	7.7	7.7	75	1.5	2	4	248	0.00	30.487 
01:25	7.6	7.6	7.6	75	1.4	1	3	248	0.00	30.487 
01:30	7.6	7.6	7.6	76	1.6	2	6	248	0.00	30.488 
01:35	7.6	7.6	7.6	76	1.6	2	5	248	0.00	30.488 
01:40	7.4	7.4	7.4	76	1.5	2	4	248	0.00	30.488 
01:45	7.4	7.4	7.4	76	1.5	2	7	270	0.00	30.489 
01:50	7.4	7.4	7.4	76	1.5	2	7	248	0.00	30.489 
01:55	7.2	7.2	7.2	76	1.3	2	5	248	0.00	30.489 
02:00	7.2	7.2	7.2	76	1.3	2	7	270	0.00	30.489 
02:05	7.0	7.0	7.0	76	1.1	1	6	248	0.00	30.489 
02:10	7.0	7.0	7.0	76	1.1	2	5	248	0.00	30.489 
02:15	7.0	7.0	7.0	76	1.1	2	6	248	0.00	30.488 
02:20	6.9	6.9	6.9	76	1.0	2	7	248	0.00	30.488 
02:25	6.9	6.9	6.9	76	1.0	2	6	248	0.00	30.488 
02:30	6.9	6.9	6.9	76	1.0	1	4	270	0.00	30.487 
02:35	6.7	6.7	6.7	76	0.8	1	5	248	0.00	30.487 
02:40	6.7	6.7	6.7	76	0.8	1	2	248	0.00	30.487 
02:45	6.5	6.5	6.5	76	0.6	1	3	248	0.00	30.484 
02:50	6.5	6.5	6.5	77	0.9	1	3	248	0.00	30.484 
02:55	6.5	6.5	6.5	77	0.9	1	3	248	0.00	30.484 
03:00	6.5	6.5	6.5	77	0.9	1	4	248	0.00	30.486 
03:05	6.5	6.5	6.5	77	0.9	1	3	248	0.00	30.486 
03:10	6.5	6.5	6.5	77	0.9	1	3	248	0.00	30.486 
03:15	6.5	6.5	6.5	77	0.9	1	2	248	0.00	30.481 
03:20	6.5	6.5	6.5	77	0.9	0	3	248	0.00	30.481 
03:25	6.5	6.5	6.5	77	0.9	0	2	248	0.00	30.481 
03:30	6.5	6.5	6.5	77	0.9	1	2	248	0.00	30.479 
03:35	6.3	6.3	6.3	77	0.7	1	3	248	0.00	30.479 
03:40	6.3	6.3	6.3	77	0.7	1	4	248	0.00	30.479 
03:45	6.3	6.3	6.3	77	0.7	1	3	248	0.00	30.480 
03:50	6.5	6.5	6.5	77	0.9	1	2	248	0.00	30.480 
03:55	6.3	6.3	6.3	77	0.7	1	3	248	0.00	30.480 
04:00	6.3	6.3	6.3	77	0.7	1	4	248	0.00	30.477 
04:05	6.5	6.5	6.5	77	0.9	1	4	248	0.00	30.477 
04:10	6.3	6.3	6.3	77	0.7	1	4	248	0.00	30.477 
04:15	6.3	6.3	6.3	78	0.9	1	5	248	0.00	30.476 
04:20	6.5	6.5	6.5	78	1.1	2	5	248	0.00	30.476 
04:25	6.5	6.5	6.5	78	1.1	2	6	248	0.00	30.476 
04:30	6.5	6.5	6.5	77	0.9	1	4	248	0.00	30.469 
04:35	6.5	6.5	6.5	77	0.9	2	6	248	0.00	30.469 
04:40	6.5	6.5	6.5	78	1.1	1	4	248	0.00	30.469 
04:45	6.5	6.5	6.5	78	1.1	1	4	248	0.00	30.464 
04:50	6.3	6.3	6.3	78	0.9	2	5	248	0.00	30.464 
04:55	6.3	6.3	6.3	78	0.9	1	3	248	0.00	30.464 
05:00	6.5	6.5	6.5	78	1.1	2	6	248	0.00	30.462 
05:05	6.5	6.5	6.5	78	1.1	2	6	248	0.00	30.462 
05:10	6.5	6.5	6.5	77	0.9	2	6	248	0.00	30.462 
05:15	6.5	6.5	6.5	77	0.9	1	4	248	0.00	30.461 
05:20	6.3	6.3	6.3	78	0.9	1	5	248	0.00	30.461 
05:25	6.3	6.3	6.3	77	0.7	1	5	270	0.00	30.461 
05:30	6.3	6.3	6.3	77	0.7	1	2	248	0.00	30.465 
05:35	6.3	6.3	6.3	77	0.7	1	5	248	0.00	30.465 
05:40	6.3	6.3	6.3	77	0.7	1	3	248	0.00	30.465 
05:45	6.3	6.3	6.3	77	0.7	1	6	248	0.00	30.465 
05:50	6.1	6.1	6.1	77	0.5	2	5	248	0.00	30.465 
05:55	6.1	6.1	6.1	77	0.5	1	4	248	0.00	30.465 
06:00	6.0	6.0	6.0	77	0.4	1	3	248	0.00	30.464 
06:05	5.8	5.8	5.8	77	0.2	2	5	248	0.00	30.464 
06:10	5.8	5.8	5.8	77	0.2	2	4	248	0.00	30.464 
06:15	5.8	5.8	5.8	77	0.2	2	5	270	0.00	30.468 
06:20	5.8	5.8	5.8	78	0.4	2	4	248	0.00	30.468 
06:25	5.6	5.6	5.6	78	0.3	2	5	248	0.00	30.468 
06:30	5.6	5.6	5.6	77	-0.0	2	4	248	0.00	30.471 
06:35	5.4	5.4	5.4	78	0.1	1	4	248	0.00	30.471 
06:40	5.4	5.4	5.4	78	0.1	1	5	248	0.00	30.471 
06:45	5.2	5.2	5.2	78	-0.1	1	4	248	0.00	30.477 
06:50	5.2	5.2	5.2	78	-0.1	1	4	248	0.00	30.477 
06:55	5.0	5.0	5.0	78	-0.3	1	5	248	0.00	30.477 
07:00	5.0	5.0	5.0	78	-0.3	1	5	248	0.00	30.481 
07:05	5.0	5.0	5.0	78	-0.3	1	5	248	0.00	30.481 
07:10	4.8	4.8	4.8	78	-0.5	2	5	248	0.00	30.481 
07:15	4.8	4.8	4.8	78	-0.5	1	5	248	0.00	30.482 
07:20	4.8	4.8	4.8	78	-0.5	2	5	248	0.00	30.482 
07:25	4.8	4.8	4.8	78	-0.5	1	4	248	0.00	30.482 
07:30	4.8	4.8	4.8	78	-0.5	1	6	248	0.00	30.482 
07:35	4.8	4.8	4.8	78	-0.5	1	5	248	0.00	30.482 
07:40	4.8	4.8	4.8	78	-0.5	2	7	248	0.00	30.482 
07:45	4.7	4.7	4.7	78	-0.6	2	6	248	0.00	30.483 
07:50	4.7	4.7	4.7	78	-0.6	2	5	248	0.00	30.483 
07:55	4.7	4.7	4.7	78	-0.6	2	7	248	0.00	30.483 
08:00	4.5	4.5	4.5	78	-0.8	2	6	248	0.00	30.485 
08:05	4.5	4.5	4.5	78	-0.8	2	6	248	0.00	30.485 
08:10	4.3	4.3	4.3	78	-1.0	2	5	270	0.00	30.485 
08:15	4.3	4.3	4.3	78	-1.0	2	5	248	0.00	30.493 
08:20	4.1	4.1	4.1	78	-1.2	2	5	248	0.00	30.493 
08:25	4.1	4.1	4.1	78	-1.2	1	4	248	0.00	30.493 
08:30	4.1	4.1	4.1	78	-1.2	3	7	248	0.00	30.493 
08:35	4.3	4.3	4.3	78	-1.0	2	5	248	0.00	30.493 
08:40	4.3	4.3	4.3	78	-1.0	2	5	248	0.00	30.493 
08:45	4.7	4.7	4.7	78	-0.6	1	5	248	0.00	30.500 
08:50	4.8	4.8	4.8	77	-0.8	2	5	248	0.00	30.500 
08:55	5.0	5.0	5.0	77	-0.6	1	4	248	0.00	30.500 
09:00	5.0	5.0	5.0	77	-0.6	2	6	248	0.00	30.501 
09:05	5.2	5.2	5.2	77	-0.4	1	2	248	0.00	30.501 
09:10	5.4	5.4	5.4	77	-0.2	2	5	248	0.00	30.501 
09:15	5.4	5.4	5.4	76	-0.5	2	5	248	0.00	30.505 
09:20	5.6	5.6	5.6	77	-0.0	2	4	248	0.00	30.505 
09:25	5.8	5.8	5.8	76	-0.1	2	5	248	0.00	30.505 
09:30	6.0	6.0	6.0	76	0.1	2	6	248	0.00	30.512 
09:35	6.1	6.1	6.1	76	0.2	2	6	248	0.00	30.512 
09:40	6.1	6.1	6.1	75	-0.1	3	11	248	0.00	30.512 
09:45	6.3	6.3	6.3	76	0.4	2	7	248	0.00	30.511 
09:50	6.5	6.5	6.5	75	0.3	3	7	248	0.00	30.511 
09:55	6.7	-1.1	6.7	75	0.5	4	10	248	0.00	30.511 
10:00	6.9	6.9	6.9	75	0.7	2	6	248	0.00	30.504 
10:05	7.2	7.2	7.2	75	1.0	2	4	270	0.00	30.504 
10:10	7.6	7.6	7.6	74	1.1	2	5	248	0.00	30.504 
10:15	7.6	7.6	7.6	74	1.1	3	7	248	0.00	30.512 
10:20	7.9	7.9	7.9	73	1.1	2	6	248	0.00	30.512 
10:25	8.1	8.1	8.1	73	1.3	1	4	248	0.00	30.512 
10:30	8.6	8.6	8.6	73	1.8	1	3	248	0.00	30.516 
10:35	9.0	9.0	9.0	72	1.8	2	4	248	0.00	30.516 
10:40	9.3	9.3	9.3	71	1.8	1	6	248	0.00	30.516 
10:45	9.5	9.5	9.5	71	2.0	2	5	248	0.00	30.515 
10:50	9.7	9.7	9.7	71	2.2	2	4	270	0.00	30.515 
10:55	9.7	9.7	9.7	71	2.2	2	5	248	0.00	30.515 
11:00	9.9	9.9	9.9	70	2.1	2	6	270	0.00	30.514 
11:05	10.0	10.0	10.0	70	2.2	2	4	248	0.00	30.514 
11:10	10.2	10.2	10.2	70	2.4	2	5	248	0.00	30.514 
11:15	10.2	10.2	10.2	70	2.4	3	9	248	0.00	30.512 
11:20	10.4	10.4	10.4	69	2.3	1	4	248	0.00	30.512 
11:25	10.5	10.5	10.5	69	2.4	3	7	248	0.00	30.512 
11:30	10.7	10.7	10.7	69	2.6	3	9	248	0.00	30.497 
11:35	11.1	11.1	11.1	69	3.0	2	4	248	0.00	30.497 
11:40	11.2	11.2	11.2	68	2.7	3	7	270	0.00	30.497 
11:45	11.2	11.2	11.2	67	2.4	3	7	270	0.00	30.494 
11:50	11.1	3.9	11.1	67	2.3	4	12	270	0.00	30.494 
11:55	10.9	3.7	10.9	68	2.4	4	11	248	0.00	30.494 
12:00	11.1	3.9	11.1	68	2.6	4	10	270	0.00	30.484 
12:05	11.4	11.4	11.4	68	2.9	3	9	248	0.00	30.484 
12:10	11.7	11.7	11.7	67	2.9	2	5	270	0.00	30.484 
12:15	11.9	11.9	11.9	66	2.8	2	5	248	0.00	30.481 
12:20	11.9	4.9	11.9	64	2.1	4	12	270	0.00	30.481 
12:25	11.9	11.9	11.9	64	2.1	2	6	270	0.00	30.481 
12:30	11.7	11.7	11.7	64	1.9	3	10	270	0.00	30.469 
12:35	11.7	11.7	11.7	63	1.6	3	7	270	0.00	30.469 
12:40	11.7	11.7	11.7	63	1.6	3	9	248	0.00	30.469 
12:45	12.1	12.1	12.1	63	2.0	2	6	248	0.00	30.466 
12:50	11.9	11.9	11.9	63	1.8	3	6	270	0.00	30.466 
12:55	11.6	11.6	11.6	63	1.5	3	7	270	0.00	30.466 
13:00	11.6	11.6	11.6	63	1.5	2	9	270	0.00	30.464 
13:05	11.7	11.7	11.7	64	1.9	2	5	270	0.00	30.464 
13:10	11.9	11.9	11.9	63	1.8	2	4	270	0.00	30.464 
13:15	11.6	11.6	11.6	63	1.5	3	7	270	0.00	30.461 
13:20	11.7	11.7	11.7	63	1.6	2	6	270	0.00	30.461 
13:25	11.9	11.9	11.9	64	2.1	2	9	270	0.00	30.461 
13:30	11.6	3.1	11.6	63	1.5	5	12	270	0.00	30.456 
13:35	11.7	11.7	11.7	64	1.9	3	10	270	0.00	30.456 
13:40	11.9	11.9	11.9	64	2.1	2	5	270	0.00	30.456 
13:45	12.1	12.1	12.1	63	2.0	3	6	270	0.00	30.457 
13:50	12.3	12.3	12.3	62	1.8	2	9	248	0.00	30.457 
13:55	12.3	12.3	12.3	62	1.8	3	7	270	0.00	30.457 
14:00	12.3	12.3	12.3	63	2.1	3	9	270	0.00	30.456 
14:05	12.6	12.6	12.6	63	2.4	2	5	270	0.00	30.456 
14:10	12.4	12.4	12.4	62	1.9	3	11	270	0.00	30.456 
14:15	12.3	5.3	12.3	62	1.8	4	11	248	0.00	30.451 
14:20	12.3	12.3	12.3	63	2.1	3	7	270	0.00	30.451 
14:25	12.4	12.4	12.4	62	1.9	2	7	248	0.00	30.451 
14:30	12.6	12.6	12.6	63	2.4	3	10	270	0.00	30.445 
14:35	12.8	12.8	12.8	62	2.3	2	5	270	0.00	30.445 
14:40	12.8	12.8	12.8	62	2.3	3	7	270	0.00	30.445 
14:45	12.8	12.8	12.8	64	3.0	3	8	270	0.00	30.443 
14:50	12.8	12.8	12.8	63	2.6	2	5	270	0.00	30.443 
14:55	12.9	12.9	12.9	62	2.4	2	6	270	0.00	30.443 
15:00	12.8	12.8	12.8	62	2.3	2	6	248	0.00	30.442 
15:05	12.6	12.6	12.6	63	2.4	3	10	270	0.00	30.442 
15:10	12.3	12.3	12.3	65	2.8	3	10	270	0.00	30.442 
15:15	12.4	12.4	12.4	64	2.6	2	6	270	0.00	30.446 
15:20	12.1	12.1	12.1	64	2.3	3	7	270	0.00	30.446 
15:25	11.9	11.9	11.9	64	2.1	2	6	270	0.00	30.446 
15:30	12.3	12.3	12.3	64	2.5	3	7	270	0.00	30.441 
15:35	12.4	12.4	12.4	63	2.2	3	11	270	0.00	30.441 
15:40	12.4	12.4	12.4	63	2.2	3	6	270	0.00	30.441 
15:45	12.3	12.3	12.3	63	2.1	2	7	270	0.00	30.441 
15:50	12.1	12.1	12.1	63	2.0	2	5	270	0.00	30.441 
15:55	11.9	11.9	11.9	64	2.1	2	6	270	0.00	30.441 
16:00	11.7	11.7	11.7	65	2.2	2	5	270	0.00	30.438 
16:05	11.4	11.4	11.4	64	1.6	3	9	270	0.00	30.438 
16:10	11.2	11.2	11.2	64	1.4	2	5	270	0.00	30.438 
16:15	11.1	11.1	11.1	64	1.3	2	6	270	0.00	30.435 
16:20	11.1	11.1	11.1	65	1.7	2	5	270	0.00	30.435 
16:25	10.9	10.9	10.9	65	1.5	3	7	270	0.00	30.435 
16:30	10.7	10.7	10.7	65	1.3	2	5	270	0.00	30.436 
16:35	10.5	10.5	10.5	65	1.1	2	9	248	0.00	30.436 
16:40	10.4	10.4	10.4	65	1.0	2	4	248	0.00	30.436 
16:45	10.4	10.4	10.4	66	1.3	2	9	248	0.00	30.436 
16:50	10.0	10.0	10.0	66	0.9	3	7	248	0.00	30.436 
16:55	9.9	9.9	9.9	67	1.2	2	6	270	0.00	30.436 
17:00	9.7	9.7	9.7	67	1.0	2	5	248	0.00	30.437 
17:05	9.5	9.5	9.5	68	1.1	2	7	248	0.00	30.437 
17:10	9.3	9.3	9.3	68	0.9	1	4	248	0.00	30.437 
17:15	9.2	9.2	9.2	69	1.1	2	6	270	0.00	30.430 
17:20	9.0	9.0	9.0	69	0.9	2	6	270	0.00	30.430 
17:25	8.8	8.8	8.8	69	0.7	2	7	248	0.00	30.430 
17:30	8.8	8.8	8.8	69	0.7	2	6	248	0.00	30.426 
17:35	8.6	8.6	8.6	70	0.9	3	9	248	0.00	30.426 
17:40	8.6	8.6	8.6	70	0.9	2	7	270	0.00	30.426 
17:45	8.4	8.4	8.4	70	0.7	1	5	248	0.00	30.428 
17:50	8.4	8.4	8.4	71	1.0	2	5	248	0.00	30.428 
17:55	8.3	8.3	8.3	71	0.9	2	5	248	0.00	30.428 
18:00	8.3	8.3	8.3	71	0.9	1	6	248	0.00	30.426 
18:05	8.3	8.3	8.3	71	0.9	2	7	248	0.00	30.426 
18:10	8.1	8.1	8.1	71	0.7	2	5	248	0.00	30.426 
18:15	8.1	8.1	8.1	72	1.0	2	5	270	0.00	30.427 
18:20	8.1	8.1	8.1	72	1.0	2	5	248	0.00	30.427 
18:25	7.9	7.9	7.9	72	0.8	2	6	248	0.00	30.427 
18:30	7.9	7.9	7.9	72	0.8	2	6	248	0.00	30.420 
18:35	7.9	7.9	7.9	73	1.1	3	6	248	0.00	30.420 
18:40	7.9	7.9	7.9	73	1.1	2	7	248	0.00	30.420 
18:45	7.9	7.9	7.9	73	1.1	3	9	248	0.00	30.420 
18:50	7.7	7.7	7.7	73	0.9	2	5	248	0.00	30.420 
18:55	7.7	7.7	7.7	73	0.9	2	6	248	0.00	30.420 
19:00	7.7	7.7	7.7	73	0.9	2	6	248	0.00	30.414 
19:05	7.6	7.6	7.6	74	1.1	2	9	248	0.00	30.414 
19:10	7.6	7.6	7.6	74	1.1	2	7	248	0.00	30.414 
19:15	7.6	7.6	7.6	74	1.1	2	5	248	0.00	30.417 
19:20	7.7	7.7	7.7	74	1.2	3	9	248	0.00	30.417 
19:25	7.7	7.7	7.7	74	1.2	1	6	248	0.00	30.417 
19:30	7.6	7.6	7.6	74	1.1	2	6	248	0.00	30.415 
19:35	7.6	7.6	7.6	74	1.1	2	5	248	0.00	30.415 
19:40	7.6	7.6	7.6	74	1.1	3	10	248	0.00	30.415 
19:45	7.6	7.6	7.6	74	1.1	2	6	270	0.00	30.413 
19:50	7.6	7.6	7.6	74	1.1	3	10	248	0.00	30.413 
19:55	7.7	7.7	7.7	74	1.2	3	9	248	0.00	30.413 
20:00	7.7	7.7	7.7	74	1.2	3	10	270	0.00	30.414 
20:05	7.7	7.7	7.7	74	1.2	3	10	270	0.00	30.414 
20:10	7.7	7.7	7.7	74	1.2	2	10	270	0.00	30.414 
20:15	7.7	7.7	7.7	74	1.2	2	7	248	0.00	30.415 
20:20	7.7	7.7	7.7	74	1.2	3	10	248	0.00	30.415 
20:25	7.7	7.7	7.7	75	1.5	3	9	248	0.00	30.415 
20:30	7.7	7.7	7.7	74	1.2	2	7	248	0.00	30.414 
20:35	7.7	7.7	7.7	75	1.5	2	7	270	0.00	30.414 
20:40	7.7	7.7	7.7	75	1.5	3	10	248	0.00	30.414 
20:45	7.7	7.7	7.7	75	1.5	3	10	248	0.00	30.414 
20:50	7.7	7.7	7.7	75	1.5	2	11	248	0.00	30.414 
20:55	7.6	7.6	7.6	75	1.4	3	11	248	0.00	30.414 
21:00	7.6	7.6	7.6	75	1.4	3	9	248	0.00	30.411 
21:05	7.4	7.4	7.4	76	1.5	2	5	248	0.00	30.411 
21:10	7.4	7.4	7.4	76	1.5	3	7	248	0.00	30.411 
21:15	7.4	7.4	7.4	76	1.5	2	12	248	0.00	30.408 
21:20	7.4	7.4	7.4	76	1.5	3	12	248	0.00	30.408 
21:25	7.4	7.4	7.4	77	1.7	3	9	248	0.00	30.408 
21:30	7.4	7.4	7.4	76	1.5	3	11	248	0.00	30.408 
21:35	7.2	7.2	7.2	77	1.5	3	9	248	0.00	30.408 
21:40	7.4	7.4	7.4	77	1.7	3	7	248	0.00	30.408 
21:45	7.4	7.4	7.4	77	1.7	2	10	248	0.00	30.407 
21:50	7.4	7.4	7.4	77	1.7	3	13	270	0.00	30.407 
21:55	7.4	7.4	7.4	77	1.7	3	10	270	0.00	30.407 
22:00	7.2	7.2	7.2	77	1.5	3	9	248	0.00	30.397 
22:05	7.2	7.2	7.2	77	1.5	3	7	270	0.00	30.397 
22:10	7.2	7.2	7.2	77	1.5	3	10	248	0.00	30.397 
22:15	7.2	7.2	7.2	77	1.5	3	10	248	0.00	30.393 
22:20	7.2	7.2	7.2	77	1.5	3	9	270	0.00	30.393 
22:25	7.4	-1.8	7.4	78	2.0	5	10	270	0.00	30.393 
22:30	7.4	7.4	7.4	78	2.0	3	11	248	0.00	30.390 
22:35	7.2	7.2	7.2	78	1.8	3	11	270	0.00	30.390 
22:40	7.2	7.2	7.2	78	1.8	3	9	248	0.00	30.390 
22:45	7.0	7.0	7.0	78	1.6	3	11	270	0.00	30.390 
22:50	7.0	7.0	7.0	78	1.6	3	9	270	0.00	30.390 
22:55	7.0	7.0	7.0	78	1.6	3	10	270	0.00	30.390 
23:00	6.9	6.9	6.9	78	1.5	3	7	270	0.00	30.386 
23:05	6.9	-0.9	6.9	78	1.5	4	12	270	0.00	30.386 
23:10	6.9	6.9	6.9	78	1.5	3	9	270	0.00	30.386 
23:15	6.9	6.9	6.9	78	1.5	3	8	248	0.00	30.386 
23:20	6.7	6.7	6.7	78	1.3	2	7	270	0.00	30.386 
23:25	6.7	6.7	6.7	78	1.3	3	9	270	0.00	30.386 
23:30	6.7	6.7	6.7	78	1.3	3	10	270	0.00	30.376 
23:35	6.7	6.7	6.7	78	1.3	2	7	270	0.00	30.376 
23:40	6.5	6.5	6.5	78	1.1	2	6	270	0.00	30.376 
23:45	6.5	6.5	6.5	78	1.1	2	10	248	0.00	30.374 
23:50	6.5	6.5	6.5	78	1.1	3	11	270	0.00	30.374 
23:55	6.5	6.5	6.5	78	1.1	3	11	270	0.00	30.374 

CoCoRaHS
IN-AL-39
A2 Web Hosting
Creative Commons License
GoDaddy
Look for:

loaded 2017-10-19 12:20:00 • last modified 2010-11-18 10:43:29
Privacy PolicyDisclaimer
• wx.awcolley.com is powered by PmWiki v.2002016 •
• all content (unless otherwise noted) © 2017 A W Colley